createdAt,value
2017-11-16T00:00:02.195Z,27.23
2017-11-16T00:02:30.173Z,28.47
2017-11-16T00:04:58.146Z,24.20
2017-11-16T00:07:26.104Z,26.40
2017-11-16T00:09:54.130Z,30.50
2017-11-16T00:12:22.096Z,30.07
2017-11-16T00:14:50.120Z,24.87
2017-11-16T00:17:18.116Z,38.17
2017-11-16T00:19:46.111Z,55.90
2017-11-16T00:22:14.100Z,32.83
2017-11-16T00:27:15.211Z,35.27
2017-11-16T00:29:43.158Z,51.17
2017-11-16T00:32:11.184Z,25.40
2017-11-16T00:34:39.198Z,27.40
2017-11-16T00:37:07.295Z,26.80
2017-11-16T00:39:35.250Z,30.83
2017-11-16T00:42:03.256Z,37.50
2017-11-16T00:44:31.236Z,38.73
2017-11-16T00:46:59.208Z,43.50
2017-11-16T00:49:27.313Z,43.50
2017-11-16T00:51:55.410Z,63.27
2017-11-16T00:54:23.571Z,50.37
2017-11-16T00:56:51.607Z,40.23
2017-11-16T00:59:19.566Z,59.20
2017-11-16T01:01:47.560Z,51.77
2017-11-16T01:04:15.521Z,45.33
2017-11-16T01:06:43.497Z,66.97
2017-11-16T01:09:11.806Z,49.77
2017-11-16T01:11:39.850Z,49.60
2017-11-16T01:14:07.800Z,57.57
2017-11-16T01:16:35.773Z,64.63
2017-11-16T01:19:03.782Z,67.90
2017-11-16T01:21:32.237Z,75.70
2017-11-16T01:24:00.213Z,59.20
2017-11-16T01:26:28.415Z,67.70
2017-11-16T01:28:56.481Z,82.57
2017-11-16T01:31:24.585Z,59.47
2017-11-16T01:33:52.550Z,92.00
2017-11-16T01:36:20.572Z,76.30
2017-11-16T01:38:48.593Z,61.93
2017-11-16T01:41:16.610Z,51.80
2017-11-16T01:43:45.894Z,90.27
2017-11-16T01:46:13.965Z,98.23
2017-11-16T01:48:42.023Z,55.17
2017-11-16T01:51:10.159Z,52.97
2017-11-16T01:53:38.205Z,52.63
2017-11-16T01:56:06.168Z,90.67
2017-11-16T01:58:34.130Z,66.33
2017-11-16T02:01:02.107Z,80.43
2017-11-16T02:03:30.178Z,74.20
2017-11-16T02:05:58.138Z,56.07
2017-11-16T02:08:26.116Z,80.77
2017-11-16T02:10:54.788Z,61.00
2017-11-16T02:13:27.498Z,84.83
2017-11-16T02:15:55.942Z,71.23
2017-11-16T02:18:23.930Z,84.60
2017-11-16T02:20:51.904Z,60.37
2017-11-16T02:23:19.915Z,70.70
2017-11-16T02:25:47.940Z,53.13
2017-11-16T02:28:15.919Z,63.07
2017-11-16T02:30:43.894Z,59.27
2017-11-16T02:33:11.869Z,89.57
2017-11-16T02:35:39.840Z,77.30
2017-11-16T02:38:07.874Z,101.40
2017-11-16T02:40:35.830Z,78.13
2017-11-16T02:43:03.811Z,105.50
2017-11-16T02:45:31.766Z,66.40
2017-11-16T02:47:59.868Z,68.40
2017-11-16T02:50:27.838Z,60.27
2017-11-16T02:52:55.880Z,84.20
2017-11-16T02:55:23.881Z,106.07
2017-11-16T02:57:51.836Z,97.63
2017-11-16T03:00:19.835Z,94.83
2017-11-16T03:02:47.797Z,84.30
2017-11-16T03:05:15.745Z,103.23
2017-11-16T03:07:43.732Z,95.37
2017-11-16T03:10:11.740Z,93.63
2017-11-16T03:12:39.709Z,81.83
2017-11-16T03:15:07.680Z,118.17
2017-11-16T03:17:35.654Z,90.43
2017-11-16T03:20:03.596Z,90.77
2017-11-16T03:22:31.555Z,69.73
2017-11-16T03:24:59.566Z,84.67
2017-11-16T03:27:27.626Z,75.67
2017-11-16T03:29:55.592Z,71.50
2017-11-16T03:32:23.617Z,60.00
2017-11-16T03:34:51.532Z,82.70
2017-11-16T03:37:19.523Z,102.60
2017-11-16T03:39:47.534Z,68.30
2017-11-16T03:42:15.515Z,70.47
2017-11-16T03:44:43.530Z,69.87
2017-11-16T03:47:11.561Z,62.53
2017-11-16T03:49:39.609Z,52.27
2017-11-16T03:52:07.894Z,55.97
2017-11-16T03:54:35.877Z,58.30
2017-11-16T03:57:03.792Z,64.33
2017-11-16T03:59:31.790Z,60.27
2017-11-16T04:01:59.789Z,60.73
2017-11-16T04:04:27.765Z,54.87
2017-11-16T04:06:55.706Z,61.80
2017-11-16T04:09:23.650Z,46.73
2017-11-16T04:11:51.638Z,43.80
2017-11-16T04:14:19.586Z,52.53
2017-11-16T04:16:47.518Z,54.00
2017-11-16T04:19:15.497Z,72.07
2017-11-16T04:21:43.466Z,54.07
2017-11-16T04:24:11.442Z,57.47
2017-11-16T04:26:39.406Z,58.10
2017-11-16T04:29:07.420Z,56.60
2017-11-16T04:31:35.486Z,58.03
2017-11-16T04:34:03.565Z,46.73
2017-11-16T04:36:31.509Z,50.00
2017-11-16T04:38:59.493Z,65.97
2017-11-16T04:41:27.574Z,64.13
2017-11-16T04:43:55.568Z,53.07
2017-11-16T04:46:23.543Z,50.73
2017-11-16T04:48:51.583Z,47.10
2017-11-16T04:51:19.580Z,53.37
2017-11-16T04:53:47.649Z,57.13
2017-11-16T04:56:15.696Z,55.00
2017-11-16T04:58:43.663Z,60.33
2017-11-16T05:01:11.634Z,52.70
2017-11-16T05:03:39.597Z,52.50
2017-11-16T05:06:07.559Z,58.73
2017-11-16T05:08:36.866Z,52.90
2017-11-16T05:11:04.973Z,45.07
2017-11-16T05:13:32.928Z,46.63
2017-11-16T05:16:00.858Z,56.70
2017-11-16T05:18:28.855Z,47.63
2017-11-16T05:20:56.952Z,55.83
2017-11-16T05:23:24.908Z,64.70
2017-11-16T05:25:52.861Z,60.20
2017-11-16T05:28:20.828Z,59.87
2017-11-16T05:30:48.799Z,49.67
2017-11-16T05:33:16.780Z,68.60
2017-11-16T05:35:44.766Z,70.13
2017-11-16T05:38:12.782Z,49.33
2017-11-16T05:40:40.742Z,57.87
2017-11-16T05:43:08.772Z,64.93
2017-11-16T05:45:37.168Z,53.17
2017-11-16T05:48:05.204Z,58.77
2017-11-16T05:50:33.482Z,50.90
2017-11-16T05:53:01.450Z,55.73
2017-11-16T05:55:29.556Z,56.47
2017-11-16T05:57:57.849Z,65.03
2017-11-16T06:00:25.836Z,49.57
2017-11-16T06:02:55.801Z,62.90
2017-11-16T06:05:23.782Z,69.40
2017-11-16T06:07:51.745Z,59.73
2017-11-16T06:10:19.754Z,63.53
2017-11-16T06:12:47.807Z,67.80
2017-11-16T06:15:17.597Z,56.67
2017-11-16T06:17:45.620Z,60.73
2017-11-16T06:20:13.831Z,66.20
2017-11-16T06:22:42.419Z,65.93
2017-11-16T06:25:10.582Z,65.90
2017-11-16T06:27:38.591Z,71.03
2017-11-16T06:30:06.692Z,60.37
2017-11-16T06:32:34.721Z,65.90
2017-11-16T06:35:03.751Z,63.30
2017-11-16T06:37:31.757Z,72.40
2017-11-16T06:39:59.797Z,67.43
2017-11-16T06:42:27.843Z,70.07
2017-11-16T06:44:55.875Z,72.80
2017-11-16T06:47:23.962Z,79.17
2017-11-16T06:49:52.436Z,76.80
2017-11-16T06:52:20.409Z,80.37
2017-11-16T06:54:49.761Z,77.23
2017-11-16T06:57:17.776Z,69.17
2017-11-16T06:59:45.992Z,86.83
2017-11-16T07:02:14.046Z,82.57
2017-11-16T07:04:42.031Z,75.70
2017-11-16T07:07:09.991Z,80.63
2017-11-16T07:09:37.959Z,77.33
2017-11-16T07:12:05.903Z,85.30
2017-11-16T07:14:34.325Z,76.33
2017-11-16T07:17:02.274Z,89.53
2017-11-16T07:19:30.288Z,84.43
2017-11-16T07:21:58.395Z,87.57
2017-11-16T07:24:26.464Z,77.27
2017-11-16T07:26:54.537Z,81.33
2017-11-16T07:29:24.704Z,88.10
2017-11-16T07:31:52.929Z,105.80
2017-11-16T07:34:20.889Z,84.33
2017-11-16T07:36:49.008Z,97.20
2017-11-16T07:39:17.068Z,102.20
2017-11-16T07:41:45.291Z,111.27
2017-11-16T07:44:13.334Z,109.60
2017-11-16T07:46:41.333Z,113.73
2017-11-16T07:49:09.330Z,116.90
2017-11-16T07:51:37.356Z,96.30
2017-11-16T07:54:05.381Z,108.90
2017-11-16T07:56:33.477Z,103.20
2017-11-16T07:59:01.500Z,100.60
2017-11-16T08:01:29.453Z,103.67
2017-11-16T08:03:57.424Z,98.23
2017-11-16T08:06:25.438Z,116.87
2017-11-16T08:08:53.436Z,124.70
2017-11-16T08:11:21.433Z,115.47
2017-11-16T08:13:49.508Z,96.23
2017-11-16T08:16:17.458Z,90.13
2017-11-16T08:18:45.590Z,81.00
2017-11-16T08:21:13.564Z,89.40
2017-11-16T08:23:41.539Z,83.67
2017-11-16T08:26:09.525Z,82.10
2017-11-16T08:28:37.538Z,86.30
2017-11-16T08:31:06.118Z,76.67
2017-11-16T08:33:34.127Z,71.33
2017-11-16T08:36:02.158Z,65.87
2017-11-16T08:38:30.582Z,64.77
2017-11-16T08:40:58.626Z,65.83
2017-11-16T08:43:26.643Z,76.43
2017-11-16T08:45:54.619Z,74.50
2017-11-16T08:48:22.694Z,87.67
2017-11-16T08:50:51.607Z,93.07
2017-11-16T08:53:19.682Z,81.90
2017-11-16T08:55:47.660Z,85.83
2017-11-16T08:58:15.877Z,85.37
2017-11-16T09:00:43.956Z,87.70
2017-11-16T09:05:46.867Z,84.50
2017-11-16T09:08:14.971Z,83.23
2017-11-16T09:10:43.148Z,82.30
2017-11-16T09:13:11.150Z,76.40
2017-11-16T09:15:39.295Z,64.63
2017-11-16T09:18:08.474Z,73.23
2017-11-16T09:20:36.470Z,73.73
2017-11-16T09:23:04.508Z,79.27
2017-11-16T09:25:32.485Z,77.23
2017-11-16T09:28:00.509Z,74.03
2017-11-16T09:30:28.538Z,74.23
2017-11-16T09:32:56.621Z,67.07
2017-11-16T09:35:24.723Z,70.27
2017-11-16T09:37:52.919Z,69.50
2017-11-16T09:40:21.295Z,64.17
2017-11-16T09:42:49.267Z,65.90
2017-11-16T09:45:17.218Z,74.50
2017-11-16T09:47:45.201Z,65.77
2017-11-16T09:50:13.346Z,64.70
2017-11-16T09:52:41.341Z,59.77
2017-11-16T09:55:09.274Z,62.17
2017-11-16T09:57:37.234Z,65.00
2017-11-16T10:00:05.212Z,60.27
2017-11-16T10:02:33.165Z,56.17
2017-11-16T10:05:02.158Z,54.10
2017-11-16T10:07:30.094Z,54.33
2017-11-16T10:09:58.181Z,47.53
2017-11-16T10:12:26.209Z,57.27
2017-11-16T10:14:54.274Z,47.27
2017-11-16T10:17:22.304Z,58.07
2017-11-16T10:19:50.349Z,49.90
2017-11-16T10:22:18.339Z,51.47
2017-11-16T10:24:46.317Z,48.07
2017-11-16T10:27:14.806Z,45.13
2017-11-16T10:29:43.948Z,49.90
2017-11-16T10:32:12.178Z,45.23
2017-11-16T10:34:40.241Z,46.27
2017-11-16T10:37:08.428Z,47.70
2017-11-16T10:39:36.429Z,40.70
2017-11-16T10:42:07.066Z,44.43
2017-11-16T10:44:36.666Z,44.93
2017-11-16T10:47:04.692Z,43.80
2017-11-16T10:49:32.866Z,42.00
2017-11-16T10:52:00.953Z,41.13
2017-11-16T10:54:29.134Z,40.43
2017-11-16T10:56:57.132Z,42.57
2017-11-16T10:59:28.012Z,42.20
2017-11-16T11:01:55.990Z,35.63
2017-11-16T11:04:23.982Z,40.00
2017-11-16T11:06:52.020Z,40.93
2017-11-16T11:09:19.998Z,40.30
2017-11-16T11:11:48.070Z,36.93
2017-11-16T11:14:16.672Z,46.43
2017-11-16T11:16:44.744Z,44.80
2017-11-16T11:19:12.748Z,44.20
2017-11-16T11:21:40.740Z,47.40
2017-11-16T11:24:09.465Z,45.50
2017-11-16T11:26:37.480Z,50.57
2017-11-16T11:29:05.444Z,53.10
2017-11-16T11:31:33.413Z,45.80
2017-11-16T11:34:01.802Z,47.50
2017-11-16T11:36:29.765Z,49.93
2017-11-16T11:38:57.787Z,46.03
2017-11-16T11:41:26.667Z,50.10
2017-11-16T11:43:54.612Z,44.10
2017-11-16T11:46:22.608Z,49.00
2017-11-16T11:48:50.574Z,44.23
2017-11-16T11:51:18.798Z,51.03
2017-11-16T11:53:46.927Z,47.37
2017-11-16T11:58:49.310Z,40.13
2017-11-16T12:01:19.334Z,41.10
2017-11-16T12:03:47.507Z,35.53
2017-11-16T12:06:15.501Z,35.60
2017-11-16T12:08:43.549Z,39.93
2017-11-16T12:11:11.668Z,38.50
2017-11-16T12:13:39.645Z,32.70
2017-11-16T12:16:07.674Z,45.23
2017-11-16T12:18:35.773Z,40.67
2017-11-16T12:21:04.064Z,42.80
2017-11-16T12:23:32.152Z,37.40
2017-11-16T12:26:00.165Z,44.27
2017-11-16T12:28:28.214Z,33.80
2017-11-16T12:30:56.237Z,41.60
2017-11-16T12:33:24.945Z,40.30
2017-11-16T12:35:53.023Z,38.07
2017-11-16T12:38:21.537Z,38.60
2017-11-16T12:40:49.596Z,40.23
2017-11-16T12:43:18.830Z,40.90
2017-11-16T12:45:47.812Z,36.47
2017-11-16T12:48:16.985Z,41.33
2017-11-16T12:50:46.813Z,37.43
2017-11-16T12:53:14.885Z,43.40
2017-11-16T12:55:42.865Z,43.77
2017-11-16T12:58:11.871Z,36.70
2017-11-16T13:00:40.154Z,37.57
2017-11-16T13:03:08.263Z,40.80
2017-11-16T13:05:36.344Z,31.73
2017-11-16T13:08:04.511Z,30.50
2017-11-16T13:10:32.472Z,26.50
2017-11-16T13:13:01.258Z,22.70
2017-11-16T13:15:29.312Z,26.70
2017-11-16T13:17:57.422Z,23.27
2017-11-16T13:20:25.349Z,25.07
2017-11-16T13:22:53.355Z,23.20
2017-11-16T13:25:21.348Z,25.70
2017-11-16T13:27:49.379Z,28.10
2017-11-16T13:30:17.445Z,26.23
2017-11-16T13:32:45.388Z,27.60
2017-11-16T13:35:13.495Z,26.97
2017-11-16T13:37:41.624Z,30.60
2017-11-16T13:40:09.877Z,26.97
2017-11-16T13:42:37.912Z,30.93
2017-11-16T13:45:06.218Z,27.87
2017-11-16T13:47:34.265Z,28.70
2017-11-16T13:50:02.246Z,27.73
2017-11-16T13:52:30.606Z,31.67
2017-11-16T13:54:59.176Z,29.57
2017-11-16T13:57:28.200Z,26.17
2017-11-16T13:59:56.290Z,28.27
2017-11-16T14:02:24.359Z,28.50
2017-11-16T14:04:53.136Z,28.17
2017-11-16T14:07:21.238Z,31.10
2017-11-16T14:09:49.277Z,29.90
2017-11-16T14:12:17.463Z,26.73
2017-11-16T14:14:45.686Z,32.90
2017-11-16T14:17:13.767Z,32.23
2017-11-16T14:19:41.779Z,31.20
2017-11-16T14:22:10.021Z,34.37
2017-11-16T14:24:38.066Z,32.17
2017-11-16T14:27:07.006Z,38.50
2017-11-16T14:29:36.117Z,34.10
2017-11-16T14:32:05.797Z,37.17
2017-11-16T14:34:34.129Z,32.07
2017-11-16T14:37:03.514Z,36.87
2017-11-16T14:39:31.576Z,33.07
2017-11-16T14:41:59.701Z,37.27
2017-11-16T14:44:27.695Z,34.67
2017-11-16T14:46:55.740Z,41.53
2017-11-16T14:49:24.425Z,37.23
2017-11-16T14:51:52.459Z,38.80
2017-11-16T14:54:21.403Z,38.53
2017-11-16T14:56:49.416Z,36.00
2017-11-16T14:59:18.142Z,39.37
2017-11-16T15:01:47.836Z,33.13
2017-11-16T15:04:15.800Z,35.57
2017-11-16T15:06:44.454Z,36.03
2017-11-16T15:09:12.509Z,41.90
2017-11-16T15:11:40.647Z,40.33
2017-11-16T15:14:08.868Z,36.67
2017-11-16T15:16:37.452Z,35.67
2017-11-16T15:19:05.497Z,34.00
2017-11-16T15:21:33.693Z,36.57
2017-11-16T15:24:01.641Z,32.30
2017-11-16T15:26:29.840Z,32.00
2017-11-16T15:28:58.428Z,31.27
2017-11-16T15:31:26.469Z,34.30
2017-11-16T15:33:54.628Z,35.47
2017-11-16T15:36:23.662Z,36.30
2017-11-16T15:38:51.639Z,37.20
2017-11-16T15:41:19.717Z,35.60
2017-11-16T15:43:47.959Z,30.70
2017-11-16T15:46:15.959Z,31.93
2017-11-16T15:48:44.008Z,33.60
2017-11-16T15:51:12.170Z,30.50
2017-11-16T15:53:40.222Z,30.40
2017-11-16T15:56:08.192Z,31.13
2017-11-16T15:58:37.555Z,27.70
2017-11-16T16:01:05.523Z,30.50
2017-11-16T16:03:33.689Z,30.47
2017-11-16T16:06:01.966Z,28.43
2017-11-16T16:08:30.250Z,30.03
2017-11-16T16:10:58.252Z,24.97
2017-11-16T16:13:26.233Z,29.97
2017-11-16T16:15:54.257Z,25.57
2017-11-16T16:18:22.276Z,26.90
2017-11-16T16:20:51.120Z,25.37
2017-11-16T16:23:19.173Z,24.80
2017-11-16T16:25:47.848Z,26.80
2017-11-16T16:28:16.561Z,27.27
2017-11-16T16:30:44.618Z,31.77
2017-11-16T16:33:12.601Z,28.97
2017-11-16T16:35:40.529Z,26.13
2017-11-16T16:38:08.510Z,25.70
2017-11-16T16:40:36.513Z,26.53
2017-11-16T16:43:04.444Z,30.83
2017-11-16T16:45:32.387Z,27.50
2017-11-16T16:48:00.311Z,28.30
2017-11-16T16:50:28.272Z,31.20
2017-11-16T16:52:56.202Z,26.93
2017-11-16T16:55:24.145Z,31.60
2017-11-16T16:57:52.152Z,29.30
2017-11-16T17:00:20.118Z,29.87
2017-11-16T17:02:48.039Z,29.77
2017-11-16T17:05:16.012Z,31.57
2017-11-16T17:07:43.968Z,30.97
2017-11-16T17:10:11.925Z,33.17
2017-11-16T17:12:39.903Z,32.23
2017-11-16T17:15:08.032Z,31.60
2017-11-16T17:17:36.041Z,31.70
2017-11-16T17:20:04.115Z,30.37
2017-11-16T17:22:32.762Z,31.67
2017-11-16T17:25:00.729Z,35.60
2017-11-16T17:27:29.523Z,35.30
2017-11-16T17:29:57.534Z,32.23
2017-11-16T17:32:25.473Z,33.33
2017-11-16T17:34:54.938Z,32.90
2017-11-16T17:37:23.209Z,32.93
2017-11-16T17:39:51.204Z,34.77
2017-11-16T17:42:19.190Z,33.80
2017-11-16T17:44:47.141Z,34.90
2017-11-16T17:47:15.093Z,33.53
2017-11-16T17:49:43.136Z,33.20
2017-11-16T17:52:11.784Z,35.30
2017-11-16T17:54:39.748Z,37.73
2017-11-16T17:57:07.759Z,32.80
2017-11-16T17:59:35.697Z,33.47
2017-11-16T18:02:03.666Z,36.10
2017-11-16T18:04:31.824Z,31.93
2017-11-16T18:07:00.319Z,34.07
2017-11-16T18:09:28.333Z,34.33
2017-11-16T18:11:56.307Z,32.37
2017-11-16T18:14:24.362Z,33.33
2017-11-16T18:16:52.344Z,35.57
2017-11-16T18:19:21.327Z,36.67
2017-11-16T18:21:49.403Z,31.77
2017-11-16T18:24:18.158Z,29.00
2017-11-16T18:26:46.231Z,34.47
2017-11-16T18:29:14.167Z,36.83
2017-11-16T18:31:42.199Z,31.53
2017-11-16T18:34:10.178Z,34.13
2017-11-16T18:36:38.383Z,36.00
2017-11-16T18:39:07.059Z,38.43
2017-11-16T18:41:35.561Z,31.57
2017-11-16T18:44:03.627Z,33.67
2017-11-16T18:46:32.477Z,33.40
2017-11-16T18:49:01.260Z,31.77
2017-11-16T18:51:31.555Z,33.97
2017-11-16T18:53:59.605Z,38.40
2017-11-16T18:56:28.530Z,35.30
2017-11-16T18:58:56.596Z,33.20
2017-11-16T19:01:24.598Z,36.10
2017-11-16T19:03:53.282Z,34.17
2017-11-16T19:06:22.207Z,33.97
2017-11-16T19:08:50.322Z,35.50
2017-11-16T19:11:18.675Z,39.20
2017-11-16T19:13:46.928Z,35.57
2017-11-16T19:16:15.177Z,34.70
2017-11-16T19:18:43.328Z,39.83
2017-11-16T19:21:13.496Z,38.50
2017-11-16T19:23:42.933Z,36.27
2017-11-16T19:26:11.051Z,36.37
2017-11-16T19:28:40.047Z,31.20
2017-11-16T19:31:08.054Z,35.27
2017-11-16T19:33:36.126Z,37.10
2017-11-16T19:36:04.090Z,32.60
2017-11-16T19:38:32.121Z,33.43
2017-11-16T19:41:00.157Z,32.50
2017-11-16T19:43:28.757Z,30.60
2017-11-16T19:45:58.804Z,36.93
2017-11-16T19:48:26.781Z,34.50
2017-11-16T19:50:54.736Z,33.60
2017-11-16T19:53:23.083Z,33.23
2017-11-16T19:55:51.244Z,35.77
2017-11-16T19:58:19.307Z,36.57
2017-11-16T20:00:48.153Z,36.33
2017-11-16T20:03:16.204Z,36.47
2017-11-16T20:05:44.301Z,35.77
2017-11-16T20:08:12.359Z,34.73
2017-11-16T20:10:40.412Z,32.53
2017-11-16T20:13:08.389Z,33.50
2017-11-16T20:15:36.981Z,35.67
2017-11-16T20:18:04.997Z,36.43
2017-11-16T20:20:33.753Z,35.40
2017-11-16T20:23:01.811Z,37.40
2017-11-16T20:25:29.784Z,39.83
2017-11-16T20:27:57.738Z,37.83
2017-11-16T20:30:25.705Z,32.30
2017-11-16T20:32:53.674Z,37.60
2017-11-16T20:35:21.650Z,34.70
2017-11-16T20:37:50.203Z,33.83
2017-11-16T20:40:23.970Z,38.33
2017-11-16T20:42:57.779Z,37.37
2017-11-16T20:45:31.496Z,33.90
2017-11-16T20:51:16.586Z,36.80
2017-11-16T20:53:46.719Z,39.23
2017-11-16T20:56:14.705Z,37.83
2017-11-16T20:58:42.634Z,36.20
2017-11-16T21:01:10.583Z,43.17
2017-11-16T21:03:38.814Z,38.20
2017-11-16T21:06:06.903Z,37.40
2017-11-16T21:08:34.894Z,35.30
2017-11-16T21:11:02.856Z,38.77
2017-11-16T21:13:31.089Z,39.60
2017-11-16T21:15:59.013Z,39.47
2017-11-16T21:18:27.070Z,37.60
2017-11-16T21:20:55.754Z,39.27
2017-11-16T21:23:23.789Z,41.10
2017-11-16T21:25:52.744Z,37.53
2017-11-16T21:28:21.689Z,38.77
2017-11-16T21:30:49.783Z,38.07
2017-11-16T21:33:17.748Z,38.10
2017-11-16T21:35:45.825Z,42.37
2017-11-16T21:38:14.027Z,40.90
2017-11-16T21:40:41.985Z,40.23
2017-11-16T21:43:09.978Z,44.63
2017-11-16T21:45:38.068Z,48.10
2017-11-16T21:48:06.205Z,113.57
2017-11-16T21:50:34.151Z,52.70
2017-11-16T21:53:02.167Z,51.40
2017-11-16T21:55:30.195Z,46.87
2017-11-16T21:57:58.384Z,47.97
2017-11-16T22:00:26.321Z,51.33
2017-11-16T22:02:54.281Z,52.07
2017-11-16T22:05:22.244Z,49.27
2017-11-16T22:07:50.556Z,56.63
2017-11-16T22:10:19.088Z,48.00
2017-11-16T22:12:47.059Z,44.57
2017-11-16T22:15:15.074Z,51.70
2017-11-16T22:17:43.103Z,48.17
2017-11-16T22:20:11.071Z,52.60
2017-11-16T22:22:39.008Z,80.10
2017-11-16T22:25:06.978Z,49.53
2017-11-16T22:27:34.937Z,50.10
2017-11-16T22:30:02.928Z,54.80
2017-11-16T22:32:30.895Z,52.43
2017-11-16T22:34:58.893Z,55.07
2017-11-16T22:37:26.889Z,48.27
2017-11-16T22:39:54.864Z,56.83
2017-11-16T22:42:22.806Z,48.83
2017-11-16T22:44:51.090Z,48.27
2017-11-16T22:47:19.048Z,54.20
2017-11-16T22:49:47.182Z,48.70
2017-11-16T22:52:15.175Z,50.60
2017-11-16T22:54:43.186Z,50.47
2017-11-16T22:57:11.213Z,42.77
2017-11-16T22:59:39.201Z,50.90
2017-11-16T23:02:07.153Z,56.20
2017-11-16T23:04:35.168Z,49.13
2017-11-16T23:07:03.124Z,72.40
2017-11-16T23:09:31.086Z,46.10
2017-11-16T23:11:59.035Z,50.43
2017-11-16T23:14:27.030Z,56.57
2017-11-16T23:16:55.022Z,55.60
2017-11-16T23:19:22.964Z,54.47
2017-11-16T23:21:50.913Z,54.47
2017-11-16T23:24:18.878Z,52.23
2017-11-16T23:26:47.805Z,51.50
2017-11-16T23:29:15.819Z,60.27
2017-11-16T23:31:43.819Z,56.60
2017-11-16T23:34:11.806Z,59.40
2017-11-16T23:36:39.831Z,55.90
2017-11-16T23:39:07.866Z,61.87
2017-11-16T23:41:35.900Z,57.30
2017-11-16T23:44:03.860Z,70.30
2017-11-16T23:46:31.972Z,58.67
2017-11-16T23:49:00.064Z,64.30
2017-11-16T23:51:27.986Z,64.30
2017-11-16T23:53:55.927Z,67.33
2017-11-16T23:56:23.917Z,63.60
2017-11-16T23:58:51.991Z,69.47
